sensor_id;sensor_type;location;lat;lon;timestamp;pressure;altitude;pressure_sealevel;temperature;humidity
81243;BME280;70716;50.074;14.496;2023-08-08T00:02:39;98882.94;;;12.26;77.85
81243;BME280;70716;50.074;14.496;2023-08-08T00:05:49;98882.47;;;12.23;77.62
81243;BME280;70716;50.074;14.496;2023-08-08T00:08:16;98882.16;;;12.25;77.47
81243;BME280;70716;50.074;14.496;2023-08-08T00:11:05;98877.00;;;12.32;77.15
81243;BME280;70716;50.074;14.496;2023-08-08T00:16:45;98879.34;;;12.51;77.28
81243;BME280;70716;50.074;14.496;2023-08-08T00:19:31;98881.38;;;12.63;76.13
81243;BME280;70716;50.074;14.496;2023-08-08T00:22:15;98879.13;;;12.65;75.88
81243;BME280;70716;50.074;14.496;2023-08-08T00:24:52;98879.38;;;12.72;75.58
81243;BME280;70716;50.074;14.496;2023-08-08T00:27:21;98877.81;;;12.71;74.77
81243;BME280;70716;50.074;14.496;2023-08-08T00:30:01;98876.41;;;12.56;75.62
81243;BME280;70716;50.074;14.496;2023-08-08T00:32:45;98878.72;;;12.45;75.76
81243;BME280;70716;50.074;14.496;2023-08-08T00:35:19;98872.94;;;12.38;76.45
81243;BME280;70716;50.074;14.496;2023-08-08T00:37:48;98875.88;;;12.24;77.26
81243;BME280;70716;50.074;14.496;2023-08-08T00:40:25;98870.13;;;12.17;76.77
81243;BME280;70716;50.074;14.496;2023-08-08T00:42:53;98883.97;;;12.12;77.53
81243;BME280;70716;50.074;14.496;2023-08-08T00:46:25;98876.44;;;12.09;77.14
81243;BME280;70716;50.074;14.496;2023-08-08T00:49:00;98873.25;;;11.99;77.98
81243;BME280;70716;50.074;14.496;2023-08-08T00:51:37;98875.03;;;11.95;78.50
81243;BME280;70716;50.074;14.496;2023-08-08T00:54:07;98876.16;;;11.85;78.67
81243;BME280;70716;50.074;14.496;2023-08-08T00:59:27;98882.44;;;11.77;79.23
81243;BME280;70716;50.074;14.496;2023-08-08T01:01:53;98872.31;;;11.77;78.93
81243;BME280;70716;50.074;14.496;2023-08-08T01:04:19;98867.47;;;11.74;78.63
81243;BME280;70716;50.074;14.496;2023-08-08T01:09:57;98857.03;;;11.85;77.76
81243;BME280;70716;50.074;14.496;2023-08-08T01:16:24;98860.91;;;11.84;77.98
81243;BME280;70716;50.074;14.496;2023-08-08T01:18:55;98861.06;;;11.87;78.07
81243;BME280;70716;50.074;14.496;2023-08-08T01:21:52;98865.22;;;11.85;77.91
81243;BME280;70716;50.074;14.496;2023-08-08T01:24:36;98872.78;;;11.79;78.24
81243;BME280;70716;50.074;14.496;2023-08-08T01:27:03;98873.72;;;11.75;78.26
81243;BME280;70716;50.074;14.496;2023-08-08T01:29:41;98875.00;;;11.69;78.47
81243;BME280;70716;50.074;14.496;2023-08-08T01:32:15;98878.38;;;11.66;78.63
81243;BME280;70716;50.074;14.496;2023-08-08T01:34:49;98877.44;;;11.62;78.45
81243;BME280;70716;50.074;14.496;2023-08-08T01:37:29;98870.53;;;11.55;78.80
81243;BME280;70716;50.074;14.496;2023-08-08T01:40:50;98867.50;;;11.48;78.76
81243;BME280;70716;50.074;14.496;2023-08-08T01:43:50;98866.53;;;11.44;79.38
81243;BME280;70716;50.074;14.496;2023-08-08T01:46:37;98861.56;;;11.38;79.63
81243;BME280;70716;50.074;14.496;2023-08-08T01:49:08;98858.84;;;11.38;79.49
81243;BME280;70716;50.074;14.496;2023-08-08T01:51:45;98852.41;;;11.34;79.61
81243;BME280;70716;50.074;14.496;2023-08-08T01:54:43;98857.06;;;11.33;80.12
81243;BME280;70716;50.074;14.496;2023-08-08T01:57:20;98843.59;;;11.28;79.61
81243;BME280;70716;50.074;14.496;2023-08-08T01:59:56;98843.25;;;11.21;80.17
81243;BME280;70716;50.074;14.496;2023-08-08T02:02:44;98846.16;;;11.24;80.10
81243;BME280;70716;50.074;14.496;2023-08-08T02:05:30;98839.41;;;11.22;79.74
81243;BME280;70716;50.074;14.496;2023-08-08T02:08:16;98846.47;;;11.14;80.22
81243;BME280;70716;50.074;14.496;2023-08-08T02:10:45;98854.78;;;11.09;80.64
81243;BME280;70716;50.074;14.496;2023-08-08T02:13:22;98865.53;;;11.06;80.95
81243;BME280;70716;50.074;14.496;2023-08-08T02:16:17;98858.97;;;11.07;81.10
81243;BME280;70716;50.074;14.496;2023-08-08T02:18:43;98855.75;;;11.05;80.95
81243;BME280;70716;50.074;14.496;2023-08-08T02:24:38;98844.06;;;11.13;80.04
81243;BME280;70716;50.074;14.496;2023-08-08T02:27:05;98843.88;;;11.09;80.30
81243;BME280;70716;50.074;14.496;2023-08-08T02:29:56;98849.00;;;11.02;80.52
81243;BME280;70716;50.074;14.496;2023-08-08T02:32:31;98843.75;;;10.97;80.48
81243;BME280;70716;50.074;14.496;2023-08-08T02:34:59;98850.63;;;10.95;80.76
81243;BME280;70716;50.074;14.496;2023-08-08T02:37:31;98852.56;;;10.94;80.80
81243;BME280;70716;50.074;14.496;2023-08-08T02:40:14;98845.47;;;11.02;79.90
81243;BME280;70716;50.074;14.496;2023-08-08T02:42:39;98845.97;;;11.12;79.35
81243;BME280;70716;50.074;14.496;2023-08-08T02:45:25;98845.97;;;11.12;79.56
81243;BME280;70716;50.074;14.496;2023-08-08T02:51:08;98843.72;;;11.14;79.80
81243;BME280;70716;50.074;14.496;2023-08-08T02:53:50;98853.38;;;11.20;79.40
81243;BME280;70716;50.074;14.496;2023-08-08T02:56:15;98846.78;;;11.21;79.07
81243;BME280;70716;50.074;14.496;2023-08-08T02:58:43;98847.59;;;11.22;79.04
81243;BME280;70716;50.074;14.496;2023-08-08T03:01:24;98848.88;;;11.16;79.22
81243;BME280;70716;50.074;14.496;2023-08-08T03:03:50;98845.81;;;11.17;79.23
81243;BME280;70716;50.074;14.496;2023-08-08T03:06:18;98843.41;;;11.24;78.87
81243;BME280;70716;50.074;14.496;2023-08-08T03:08:47;98840.69;;;11.24;79.04
81243;BME280;70716;50.074;14.496;2023-08-08T03:11:42;98845.03;;;11.34;78.82
81243;BME280;70716;50.074;14.496;2023-08-08T03:14:16;98846.47;;;11.40;78.20
81243;BME280;70716;50.074;14.496;2023-08-08T03:16:48;98850.50;;;11.51;77.56
81243;BME280;70716;50.074;14.496;2023-08-08T03:19:44;98853.50;;;11.58;77.31
81243;BME280;70716;50.074;14.496;2023-08-08T03:22:10;98852.38;;;11.68;76.93
81243;BME280;70716;50.074;14.496;2023-08-08T03:24:47;98847.41;;;11.70;76.79
81243;BME280;70716;50.074;14.496;2023-08-08T03:27:16;98846.75;;;11.73;76.47
81243;BME280;70716;50.074;14.496;2023-08-08T03:29:41;98847.22;;;11.75;76.45
81243;BME280;70716;50.074;14.496;2023-08-08T03:32:13;98854.00;;;11.78;76.66
81243;BME280;70716;50.074;14.496;2023-08-08T03:34:49;98853.19;;;11.86;76.31
81243;BME280;70716;50.074;14.496;2023-08-08T03:37:38;98857.53;;;11.87;75.86
81243;BME280;70716;50.074;14.496;2023-08-08T03:40:03;98852.38;;;11.85;75.60
81243;BME280;70716;50.074;14.496;2023-08-08T03:45:20;98863.94;;;11.91;76.07
81243;BME280;70716;50.074;14.496;2023-08-08T03:47:54;98865.53;;;12.01;75.51
81243;BME280;70716;50.074;14.496;2023-08-08T03:50:20;98856.53;;;12.00;75.37
81243;BME280;70716;50.074;14.496;2023-08-08T03:52:46;98857.66;;;11.99;76.33
81243;BME280;70716;50.074;14.496;2023-08-08T03:55:34;98861.66;;;12.02;76.56
81243;BME280;70716;50.074;14.496;2023-08-08T03:58:10;98859.25;;;12.00;76.07
81243;BME280;70716;50.074;14.496;2023-08-08T04:00:48;98863.59;;;12.10;76.30
81243;BME280;70716;50.074;14.496;2023-08-08T04:03:25;98859.56;;;12.07;76.04
81243;BME280;70716;50.074;14.496;2023-08-08T04:06:14;98866.63;;;12.08;75.71
81243;BME280;70716;50.074;14.496;2023-08-08T04:09:01;98866.91;;;12.15;75.97
81243;BME280;70716;50.074;14.496;2023-08-08T04:11:41;98865.94;;;12.20;75.90
81243;BME280;70716;50.074;14.496;2023-08-08T04:14:12;98860.16;;;12.21;75.39
81243;BME280;70716;50.074;14.496;2023-08-08T04:17:02;98866.41;;;12.22;75.21
81243;BME280;70716;50.074;14.496;2023-08-08T04:19:54;98863.69;;;12.13;75.69
81243;BME280;70716;50.074;14.496;2023-08-08T04:22:28;98868.72;;;12.11;75.70
81243;BME280;70716;50.074;14.496;2023-08-08T04:24:56;98869.84;;;12.10;76.19
81243;BME280;70716;50.074;14.496;2023-08-08T04:27:24;98869.38;;;12.00;76.19
81243;BME280;70716;50.074;14.496;2023-08-08T04:29:53;98867.31;;;11.97;76.54
81243;BME280;70716;50.074;14.496;2023-08-08T04:32:18;98868.75;;;11.94;77.07
81243;BME280;70716;50.074;14.496;2023-08-08T04:35:19;98876.47;;;11.92;77.25
81243;BME280;70716;50.074;14.496;2023-08-08T04:37:50;98876.16;;;11.94;77.54
81243;BME280;70716;50.074;14.496;2023-08-08T04:40:39;98877.91;;;11.98;77.08
81243;BME280;70716;50.074;14.496;2023-08-08T04:43:10;98879.03;;;11.97;77.66
81243;BME280;70716;50.074;14.496;2023-08-08T04:45:47;98885.09;;;12.11;76.75
81243;BME280;70716;50.074;14.496;2023-08-08T04:48:16;98884.94;;;12.54;75.38
81243;BME280;70716;50.074;14.496;2023-08-08T04:51:03;98890.84;;;12.65;74.33
81243;BME280;70716;50.074;14.496;2023-08-08T04:53:35;98897.38;;;12.73;74.59
81243;BME280;70716;50.074;14.496;2023-08-08T04:56:09;98887.00;;;12.66;75.10
81243;BME280;70716;50.074;14.496;2023-08-08T04:58:35;98884.41;;;12.70;74.00
81243;BME280;70716;50.074;14.496;2023-08-08T05:01:01;98880.31;;;12.76;73.83
81243;BME280;70716;50.074;14.496;2023-08-08T05:03:26;98889.63;;;12.83;73.97
81243;BME280;70716;50.074;14.496;2023-08-08T05:06:07;98895.28;;;12.78;73.63
81243;BME280;70716;50.074;14.496;2023-08-08T05:11:23;98896.78;;;12.97;73.87
81243;BME280;70716;50.074;14.496;2023-08-08T05:14:15;98888.59;;;12.97;73.09
81243;BME280;70716;50.074;14.496;2023-08-08T05:16:50;98898.63;;;13.13;72.56
81243;BME280;70716;50.074;14.496;2023-08-08T05:19:22;98899.53;;;13.26;72.30
81243;BME280;70716;50.074;14.496;2023-08-08T05:21:49;98887.84;;;13.17;71.43
81243;BME280;70716;50.074;14.496;2023-08-08T05:24:21;98884.91;;;12.93;72.79
81243;BME280;70716;50.074;14.496;2023-08-08T05:26:47;98886.56;;;12.85;72.98
81243;BME280;70716;50.074;14.496;2023-08-08T05:29:12;98887.34;;;12.85;72.84
81243;BME280;70716;50.074;14.496;2023-08-08T05:31:41;98886.38;;;12.61;73.92
81243;BME280;70716;50.074;14.496;2023-08-08T05:34:07;98883.94;;;12.68;74.03
81243;BME280;70716;50.074;14.496;2023-08-08T05:36:32;98882.66;;;12.65;74.09
81243;BME280;70716;50.074;14.496;2023-08-08T05:39:04;98890.41;;;12.84;73.52
81243;BME280;70716;50.074;14.496;2023-08-08T05:41:33;98889.25;;;13.23;72.48
81243;BME280;70716;50.074;14.496;2023-08-08T05:44:01;98885.50;;;14.02;69.90
81243;BME280;70716;50.074;14.496;2023-08-08T05:46:33;98877.00;;;14.28;68.74
81243;BME280;70716;50.074;14.496;2023-08-08T05:48:58;98876.84;;;14.82;67.67
81243;BME280;70716;50.074;14.496;2023-08-08T05:51:43;98880.50;;;15.50;65.42
81243;BME280;70716;50.074;14.496;2023-08-08T05:58:12;98882.34;;;16.46;61.00
81243;BME280;70716;50.074;14.496;2023-08-08T06:00:56;98880.59;;;17.39;59.46
81243;BME280;70716;50.074;14.496;2023-08-08T06:03:35;98873.72;;;17.49;57.78
81243;BME280;70716;50.074;14.496;2023-08-08T06:06:33;98880.50;;;17.16;58.20
81243;BME280;70716;50.074;14.496;2023-08-08T06:09:10;98870.34;;;16.38;60.96
81243;BME280;70716;50.074;14.496;2023-08-08T06:12:18;98875.66;;;17.10;60.38
81243;BME280;70716;50.074;14.496;2023-08-08T06:15:10;98877.94;;;18.89;54.77
81243;BME280;70716;50.074;14.496;2023-08-08T06:17:54;98867.66;;;19.42;52.95
81243;BME280;70716;50.074;14.496;2023-08-08T06:27:16;98881.75;;;21.22;47.20
81243;BME280;70716;50.074;14.496;2023-08-08T06:30:10;98892.47;;;21.27;46.86
81243;BME280;70716;50.074;14.496;2023-08-08T06:35:58;98883.22;;;19.84;49.69
81243;BME280;70716;50.074;14.496;2023-08-08T06:38:31;98885.00;;;21.35;47.56
81243;BME280;70716;50.074;14.496;2023-08-08T06:41:20;98878.75;;;21.56;45.67
81243;BME280;70716;50.074;14.496;2023-08-08T06:44:08;98896.34;;;21.95;45.19
81243;BME280;70716;50.074;14.496;2023-08-08T06:46:40;98894.53;;;22.38;43.62
81243;BME280;70716;50.074;14.496;2023-08-08T06:49:06;98900.44;;;21.39;45.45
81243;BME280;70716;50.074;14.496;2023-08-08T06:51:44;98900.31;;;21.18;45.44
81243;BME280;70716;50.074;14.496;2023-08-08T07:01:14;98892.41;;;21.93;43.94
81243;BME280;70716;50.074;14.496;2023-08-08T07:11:05;98890.16;;;23.30;41.80
81243;BME280;70716;50.074;14.496;2023-08-08T07:14:09;98889.34;;;23.40;40.99
81243;BME280;70716;50.074;14.496;2023-08-08T07:20:11;98887.06;;;22.85;41.07
81243;BME280;70716;50.074;14.496;2023-08-08T07:25:55;98894.78;;;20.30;48.45
81243;BME280;70716;50.074;14.496;2023-08-08T07:48:32;98882.16;;;18.60;52.29
81243;BME280;70716;50.074;14.496;2023-08-08T07:51:10;98884.75;;;18.72;51.58
81243;BME280;70716;50.074;14.496;2023-08-08T07:56:48;98887.28;;;19.33;50.08
81243;BME280;70716;50.074;14.496;2023-08-08T08:16:50;98884.66;;;20.89;46.58
81243;BME280;70716;50.074;14.496;2023-08-08T08:19:38;98874.94;;;21.13;45.44
81243;BME280;70716;50.074;14.496;2023-08-08T08:22:04;98877.31;;;20.59;46.07
81243;BME280;70716;50.074;14.496;2023-08-08T08:24:41;98866.63;;;19.84;46.80
81243;BME280;70716;50.074;14.496;2023-08-08T08:27:12;98868.19;;;18.72;49.71
81243;BME280;70716;50.074;14.496;2023-08-08T08:30:25;98853.03;;;18.85;50.09
81243;BME280;70716;50.074;14.496;2023-08-08T08:32:54;98864.31;;;19.56;47.96
81243;BME280;70716;50.074;14.496;2023-08-08T08:35:42;98857.94;;;20.22;46.51
81243;BME280;70716;50.074;14.496;2023-08-08T08:38:08;98858.56;;;20.42;44.10
81243;BME280;70716;50.074;14.496;2023-08-08T08:40:51;98857.09;;;19.81;46.11
81243;BME280;70716;50.074;14.496;2023-08-08T08:43:22;98860.31;;;20.24;46.10
81243;BME280;70716;50.074;14.496;2023-08-08T08:46:09;98855.47;;;20.51;45.32
81243;BME280;70716;50.074;14.496;2023-08-08T08:55:48;98841.44;;;21.35;45.25
81243;BME280;70716;50.074;14.496;2023-08-08T08:58:31;98841.28;;;21.90;44.35
81243;BME280;70716;50.074;14.496;2023-08-08T09:01:23;98840.19;;;22.27;41.08
81243;BME280;70716;50.074;14.496;2023-08-08T09:03:59;98848.13;;;22.39;40.17
81243;BME280;70716;50.074;14.496;2023-08-08T09:06:33;98843.72;;;22.13;42.12
81243;BME280;70716;50.074;14.496;2023-08-08T09:09:24;98853.25;;;22.19;40.48
81243;BME280;70716;50.074;14.496;2023-08-08T09:12:57;98845.34;;;22.53;42.05
81243;BME280;70716;50.074;14.496;2023-08-08T09:18:50;98843.78;;;22.45;40.94
81243;BME280;70716;50.074;14.496;2023-08-08T09:21:40;98833.06;;;22.36;40.03
81243;BME280;70716;50.074;14.496;2023-08-08T09:24:29;98841.72;;;22.14;40.59
81243;BME280;70716;50.074;14.496;2023-08-08T09:26:59;98847.03;;;21.50;42.12
81243;BME280;70716;50.074;14.496;2023-08-08T09:29:25;98848.31;;;21.70;41.71
81243;BME280;70716;50.074;14.496;2023-08-08T09:31:53;98846.47;;;22.02;42.24
81243;BME280;70716;50.074;14.496;2023-08-08T09:34:51;98846.88;;;22.04;41.21
81243;BME280;70716;50.074;14.496;2023-08-08T09:37:18;98831.06;;;22.30;41.54
81243;BME280;70716;50.074;14.496;2023-08-08T09:43:27;98845.19;;;21.82;41.05
81243;BME280;70716;50.074;14.496;2023-08-08T09:53:33;98837.00;;;22.21;41.69
81243;BME280;70716;50.074;14.496;2023-08-08T10:05:35;98835.53;;;21.37;41.01
81243;BME280;70716;50.074;14.496;2023-08-08T10:11:37;98825.03;;;21.09;41.94
81243;BME280;70716;50.074;14.496;2023-08-08T10:14:14;98832.22;;;21.21;41.73
81243;BME280;70716;50.074;14.496;2023-08-08T10:16:55;98822.00;;;21.28;42.88
81243;BME280;70716;50.074;14.496;2023-08-08T10:19:59;98825.63;;;21.43;41.78
81243;BME280;70716;50.074;14.496;2023-08-08T10:22:55;98813.34;;;21.37;40.87
81243;BME280;70716;50.074;14.496;2023-08-08T10:25:27;98814.16;;;21.48;40.26
81243;BME280;70716;50.074;14.496;2023-08-08T10:31:00;98813.19;;;21.12;40.69
81243;BME280;70716;50.074;14.496;2023-08-08T10:37:27;98803.00;;;21.27;39.96
81243;BME280;70716;50.074;14.496;2023-08-08T10:40:16;98804.56;;;21.24;40.37
81243;BME280;70716;50.074;14.496;2023-08-08T10:43:09;98787.50;;;21.19;40.28
81243;BME280;70716;50.074;14.496;2023-08-08T10:46:29;98792.41;;;20.81;41.65
81243;BME280;70716;50.074;14.496;2023-08-08T10:52:53;98777.44;;;21.80;39.89
81243;BME280;70716;50.074;14.496;2023-08-08T10:58:52;98755.66;;;21.89;38.46
81243;BME280;70716;50.074;14.496;2023-08-08T11:01:17;98758.31;;;21.42;36.69
81243;BME280;70716;50.074;14.496;2023-08-08T11:03:47;98758.00;;;21.76;36.60
81243;BME280;70716;50.074;14.496;2023-08-08T11:06:45;98754.06;;;21.77;37.06
81243;BME280;70716;50.074;14.496;2023-08-08T11:09:16;98746.06;;;21.58;36.68
81243;BME280;70716;50.074;14.496;2023-08-08T11:12:18;98741.03;;;22.13;37.27
81243;BME280;70716;50.074;14.496;2023-08-08T11:14:50;98754.13;;;22.16;36.38
81243;BME280;70716;50.074;14.496;2023-08-08T11:17:57;98739.06;;;22.14;37.22
81243;BME280;70716;50.074;14.496;2023-08-08T11:20:29;98729.53;;;22.25;37.41
81243;BME280;70716;50.074;14.496;2023-08-08T11:27:07;98730.72;;;22.42;37.00
81243;BME280;70716;50.074;14.496;2023-08-08T11:30:12;98729.06;;;21.63;36.06
81243;BME280;70716;50.074;14.496;2023-08-08T11:40:17;98735.72;;;21.37;37.78
81243;BME280;70716;50.074;14.496;2023-08-08T11:42:51;98724.59;;;21.26;37.34
81243;BME280;70716;50.074;14.496;2023-08-08T11:49:16;98704.03;;;21.31;35.47
81243;BME280;70716;50.074;14.496;2023-08-08T11:51:48;98702.03;;;21.28;35.87
81243;BME280;70716;50.074;14.496;2023-08-08T11:54:30;98705.59;;;21.25;35.79
81243;BME280;70716;50.074;14.496;2023-08-08T11:57:05;98699.25;;;21.24;35.08
81243;BME280;70716;50.074;14.496;2023-08-08T11:59:48;98705.19;;;21.23;34.25
81243;BME280;70716;50.074;14.496;2023-08-08T12:05:55;98685.31;;;21.06;34.24
81243;BME280;70716;50.074;14.496;2023-08-08T12:08:30;98692.34;;;20.90;34.87
81243;BME280;70716;50.074;14.496;2023-08-08T12:15:11;98673.44;;;21.09;34.95
81243;BME280;70716;50.074;14.496;2023-08-08T12:20:41;98681.88;;;21.31;33.56
81243;BME280;70716;50.074;14.496;2023-08-08T12:23:43;98683.06;;;21.37;32.87
81243;BME280;70716;50.074;14.496;2023-08-08T12:26:32;98677.94;;;21.53;34.06
81243;BME280;70716;50.074;14.496;2023-08-08T12:29:10;98669.22;;;21.51;33.28
81243;BME280;70716;50.074;14.496;2023-08-08T12:35:55;98683.88;;;21.48;33.38
81243;BME280;70716;50.074;14.496;2023-08-08T12:42:10;98665.28;;;21.59;33.64
81243;BME280;70716;50.074;14.496;2023-08-08T12:44:36;98671.63;;;21.74;34.55
81243;BME280;70716;50.074;14.496;2023-08-08T12:47:21;98674.41;;;21.81;34.67
81243;BME280;70716;50.074;14.496;2023-08-08T12:49:56;98667.28;;;21.69;34.12
81243;BME280;70716;50.074;14.496;2023-08-08T12:52:21;98662.91;;;21.72;34.38
81243;BME280;70716;50.074;14.496;2023-08-08T12:54:50;98661.69;;;21.52;34.70
81243;BME280;70716;50.074;14.496;2023-08-08T12:57:27;98669.22;;;21.58;35.49
81243;BME280;70716;50.074;14.496;2023-08-08T13:00:16;98679.94;;;21.70;36.01
81243;BME280;70716;50.074;14.496;2023-08-08T13:02:57;98663.72;;;21.80;34.28
81243;BME280;70716;50.074;14.496;2023-08-08T13:05:38;98662.91;;;21.61;34.89
81243;BME280;70716;50.074;14.496;2023-08-08T13:08:22;98662.91;;;21.68;35.60
81243;BME280;70716;50.074;14.496;2023-08-08T13:11:10;98662.94;;;21.90;35.15
81243;BME280;70716;50.074;14.496;2023-08-08T13:14:14;98657.38;;;22.07;34.31
81243;BME280;70716;50.074;14.496;2023-08-08T13:16:59;98652.63;;;22.19;33.47
81243;BME280;70716;50.074;14.496;2023-08-08T13:19:34;98655.41;;;21.90;33.55
81243;BME280;70716;50.074;14.496;2023-08-08T13:24:57;98654.56;;;21.97;34.20
81243;BME280;70716;50.074;14.496;2023-08-08T13:31:01;98637.56;;;21.81;33.08
81243;BME280;70716;50.074;14.496;2023-08-08T13:33:49;98639.13;;;21.67;34.81
81243;BME280;70716;50.074;14.496;2023-08-08T13:36:18;98643.50;;;21.72;35.37
81243;BME280;70716;50.074;14.496;2023-08-08T13:38:44;98653.81;;;21.79;35.32
81243;BME280;70716;50.074;14.496;2023-08-08T13:41:59;98644.31;;;21.83;35.42
81243;BME280;70716;50.074;14.496;2023-08-08T13:45:14;98637.56;;;21.73;34.06
81243;BME280;70716;50.074;14.496;2023-08-08T13:47:58;98639.53;;;21.87;36.25
81243;BME280;70716;50.074;14.496;2023-08-08T13:50:30;98641.91;;;21.78;33.94
81243;BME280;70716;50.074;14.496;2023-08-08T13:53:10;98628.03;;;21.67;35.19
81243;BME280;70716;50.074;14.496;2023-08-08T13:56:18;98623.28;;;21.82;34.93
81243;BME280;70716;50.074;14.496;2023-08-08T13:58:58;98641.13;;;22.02;34.99
81243;BME280;70716;50.074;14.496;2023-08-08T14:02:17;98631.59;;;22.14;34.07
81243;BME280;70716;50.074;14.496;2023-08-08T14:05:06;98632.00;;;22.02;32.77
81243;BME280;70716;50.074;14.496;2023-08-08T14:07:43;98621.69;;;21.99;32.70
81243;BME280;70716;50.074;14.496;2023-08-08T14:10:29;98624.44;;;21.99;32.82
81243;BME280;70716;50.074;14.496;2023-08-08T14:13:01;98622.09;;;22.04;33.70
81243;BME280;70716;50.074;14.496;2023-08-08T14:15:30;98640.34;;;22.05;33.39
81243;BME280;70716;50.074;14.496;2023-08-08T14:18:02;98637.56;;;22.02;32.85
81243;BME280;70716;50.074;14.496;2023-08-08T14:20:34;98642.69;;;22.00;33.45
81243;BME280;70716;50.074;14.496;2023-08-08T14:23:23;98631.63;;;22.07;33.79
81243;BME280;70716;50.074;14.496;2023-08-08T14:26:17;98625.28;;;22.06;33.25
81243;BME280;70716;50.074;14.496;2023-08-08T14:28:45;98626.44;;;21.98;32.48
81243;BME280;70716;50.074;14.496;2023-08-08T14:31:14;98626.44;;;21.98;31.91
81243;BME280;70716;50.074;14.496;2023-08-08T14:34:16;98631.63;;;21.71;32.95
81243;BME280;70716;50.074;14.496;2023-08-08T14:36:46;98620.13;;;21.59;32.80
81243;BME280;70716;50.074;14.496;2023-08-08T14:39:20;98640.28;;;21.49;33.13
81243;BME280;70716;50.074;14.496;2023-08-08T14:42:13;98647.03;;;21.58;34.63
81243;BME280;70716;50.074;14.496;2023-08-08T14:44:40;98636.34;;;21.57;31.96
81243;BME280;70716;50.074;14.496;2023-08-08T14:47:22;98637.13;;;21.39;33.29
81243;BME280;70716;50.074;14.496;2023-08-08T14:53:06;98649.00;;;21.40;34.53
81243;BME280;70716;50.074;14.496;2023-08-08T14:55:59;98640.63;;;21.19;33.90
81243;BME280;70716;50.074;14.496;2023-08-08T14:58:39;98648.63;;;21.34;34.19
81243;BME280;70716;50.074;14.496;2023-08-08T15:01:27;98659.69;;;21.45;34.86
81243;BME280;70716;50.074;14.496;2023-08-08T15:07:33;98650.22;;;21.60;33.18
81243;BME280;70716;50.074;14.496;2023-08-08T15:10:01;98653.81;;;21.75;33.95
81243;BME280;70716;50.074;14.496;2023-08-08T15:12:28;98659.75;;;21.84;33.22
81243;BME280;70716;50.074;14.496;2023-08-08T15:15:35;98653.78;;;21.96;33.98
81243;BME280;70716;50.074;14.496;2023-08-08T15:18:38;98644.69;;;21.92;33.82
81243;BME280;70716;50.074;14.496;2023-08-08T15:35:21;98658.13;;;21.51;35.56
81243;BME280;70716;50.074;14.496;2023-08-08T15:38:14;98668.41;;;21.51;34.71
81243;BME280;70716;50.074;14.496;2023-08-08T15:40:48;98660.88;;;21.44;34.19
81243;BME280;70716;50.074;14.496;2023-08-08T15:43:14;98661.25;;;21.39;34.27
81243;BME280;70716;50.074;14.496;2023-08-08T15:45:49;98663.66;;;21.44;34.37
81243;BME280;70716;50.074;14.496;2023-08-08T15:48:18;98675.94;;;21.36;34.82
81243;BME280;70716;50.074;14.496;2023-08-08T15:50:44;98668.41;;;21.36;35.48
81243;BME280;70716;50.074;14.496;2023-08-08T15:53:18;98663.66;;;21.33;34.14
81243;BME280;70716;50.074;14.496;2023-08-08T15:55:46;98676.72;;;21.33;34.87
81243;BME280;70716;50.074;14.496;2023-08-08T15:58:18;98670.66;;;21.06;34.30
81243;BME280;70716;50.074;14.496;2023-08-08T16:01:24;98676.97;;;20.99;33.47
81243;BME280;70716;50.074;14.496;2023-08-08T16:03:35;98670.56;;;20.85;35.26
81243;BME280;70716;50.074;14.496;2023-08-08T16:11:43;98671.03;;;21.04;34.15
81243;BME280;70716;50.074;14.496;2023-08-08T16:14:11;98672.19;;;20.93;33.58
81243;BME280;70716;50.074;14.496;2023-08-08T16:16:40;98682.06;;;20.90;34.09
81243;BME280;70716;50.074;14.496;2023-08-08T16:19:12;98685.22;;;20.89;34.52
81243;BME280;70716;50.074;14.496;2023-08-08T16:21:44;98685.19;;;20.85;34.69
81243;BME280;70716;50.074;14.496;2023-08-08T16:24:15;98688.22;;;20.55;35.54
81243;BME280;70716;50.074;14.496;2023-08-08T16:26:41;98682.72;;;20.62;35.04
81243;BME280;70716;50.074;14.496;2023-08-08T16:29:09;98689.84;;;20.63;34.99
81243;BME280;70716;50.074;14.496;2023-08-08T16:31:41;98688.69;;;20.64;35.54
81243;BME280;70716;50.074;14.496;2023-08-08T16:34:07;98694.53;;;20.52;35.21
81243;BME280;70716;50.074;14.496;2023-08-08T16:36:41;98689.78;;;20.53;35.05
81243;BME280;70716;50.074;14.496;2023-08-08T16:39:09;98690.53;;;20.46;35.69
81243;BME280;70716;50.074;14.496;2023-08-08T16:41:34;98701.00;;;20.23;36.00
81243;BME280;70716;50.074;14.496;2023-08-08T16:44:06;98687.19;;;20.23;36.51
81243;BME280;70716;50.074;14.496;2023-08-08T16:46:35;98690.34;;;20.25;36.00
81243;BME280;70716;50.074;14.496;2023-08-08T16:49:04;98693.91;;;20.22;36.09
81243;BME280;70716;50.074;14.496;2023-08-08T16:52:04;98692.25;;;20.10;35.92
81243;BME280;70716;50.074;14.496;2023-08-08T16:54:33;98690.28;;;20.10;35.53
81243;BME280;70716;50.074;14.496;2023-08-08T16:57:25;98696.59;;;20.11;35.95
81243;BME280;70716;50.074;14.496;2023-08-08T16:59:50;98699.34;;;20.07;36.45
81243;BME280;70716;50.074;14.496;2023-08-08T17:02:19;98698.44;;;19.96;36.73
81243;BME280;70716;50.074;14.496;2023-08-08T17:07:50;98700.88;;;20.01;37.27
81243;BME280;70716;50.074;14.496;2023-08-08T17:10:22;98701.56;;;19.91;37.59
81243;BME280;70716;50.074;14.496;2023-08-08T17:12:56;98701.13;;;19.86;37.62
81243;BME280;70716;50.074;14.496;2023-08-08T17:15:22;98701.88;;;19.83;37.33
81243;BME280;70716;50.074;14.496;2023-08-08T17:17:50;98702.25;;;19.81;37.73
81243;BME280;70716;50.074;14.496;2023-08-08T17:20:18;98710.47;;;19.74;37.88
81243;BME280;70716;50.074;14.496;2023-08-08T17:22:43;98708.84;;;19.69;38.24
81243;BME280;70716;50.074;14.496;2023-08-08T17:25:12;98703.28;;;19.66;37.95
81243;BME280;70716;50.074;14.496;2023-08-08T17:30:29;98708.44;;;19.64;38.60